Sao Jose do Norte, Brazil
Current Conditions -  °F | °C
As of 6:00 AM on Sunday 26 Oct 2014 (Local Time) from SBPA Reporting Station
Scattered Clouds Scattered Clouds  
Wind Chill: 68°   Ceiling: Unl
Heat Index: 68°   Visibility: 5mi
Dew Point: 64°   Wind: 13mph
Humidity: 88%   Direction: 90°E
Pressure: 29.91"   Gusts: NA
Location:  32.01°S, 52.04°W
Report Text: SBPA 260800Z 09011KT 8000 SCT009 20/18 Q1013
Loading
Personal Weather Stations






























Interactive Weather Map
Tropical Storm Tracking
New forecast layout! Learn more

10-Day Weather Forecast

Advertisements
Track Severe Weather on mobile